• Join FlightAware (Why Join?)
  • Login
  • US Flag 
04:43AM EDT


 

Airport Tracker/Info


-or-


 

Live Flight TrackerFlight Track Log ✈ LBQ968 ✈ 07-Jun-2014 ✈ KAGC - KHEF

Flight Track Log - Related Links

Times and Time Zones

All times are in EDT time to prevent confusion due to time zone crossing. See the LBQ968 flight status page for this flight to view local times or setup timezone preferences in your user account.

Time Position Orientation Groundspeed Altitude Reporting Facility
EDT Latitude Longitude Course Direction KTS MPH feet Rate Location/Type
10:24PM 40.2550 -79.8942 175° South 129 148 5,100  Level Cleveland Center
10:25PM 40.2203 -79.8903 175° South 129 148 6,300 900 Climbing Cleveland Center
10:26PM 40.1861 -79.8853 174° South 127 146 7,000 360 Climbing Cleveland Center
10:27PM 40.0521 -79.9000 180° South  Level FlightAware Approximate
10:27PM 40.1408 -79.8789 174° South 157 181 7,100  Level Cleveland Center
10:28PM 40.0025 -79.8952 176° South  Level FlightAware Approximate
10:28PM 40.0981 -79.8378 144° Southeast 189 217 7,100  Level Cleveland Center
10:29PM 40.0547 -79.7975 145° Southeast 190 219 7,100  Level Cleveland Center
10:30PM 40.0117 -79.7567 144° Southeast 192 221 7,100  Level Cleveland Center
10:31PM 39.9681 -79.7150 144° Southeast 192 221 7,100  Level Cleveland Center
10:32PM 39.9228 -79.6731 145° Southeast 193 222 7,100  Level Cleveland Center
10:33PM 39.8697 -79.6231 144° Southeast 194 223 7,100  Level Cleveland Center
10:34PM 39.8261 -79.5808 143° Southeast 195 224 7,100  Level Cleveland Center
10:35PM 39.7828 -79.5367 142° Southeast 195 224 7,100  Level Cleveland Center
10:36PM 39.7378 -79.4950 145° Southeast 196 226 7,100  Level Cleveland Center
10:37PM 39.6939 -79.4539 144° Southeast 196 226 7,100  Level Cleveland Center
10:38PM 39.6486 -79.4122 145° Southeast 197 227 7,100  Level Cleveland Center
10:39PM 39.6036 -79.3717 145° Southeast 197 227 7,100  Level Cleveland Center
10:40PM 39.5600 -79.3269 142° Southeast 199 229 7,100 -60 Level Cleveland Center
10:41PM 39.5161 -79.2817 141° Southeast 200 230 7,000 -60 Descending Cleveland Center
10:42PM 39.4725 -79.2394 143° Southeast 200 230 7,000  Level Cleveland Center
10:43PM 39.4297 -79.1922 140° Southeast 200 230 7,000  Level Cleveland Center
10:44PM 39.3875 -79.1467 140° Southeast 200 230 7,000  Level Cleveland Center
10:45PM 39.3397 -79.0964 141° Southeast 203 234 7,100  Climbing Washington Center
10:46PM 39.2953 -79.0486 140° Southeast 203 234 7,100  Level Washington Center
10:47PM 39.2506 -79.0036 142° Southeast 203 234 7,100  Level Washington Center
10:48PM 39.2275 -78.9408 115° Southeast 198 228 7,100  Level Washington Center
10:49PM 39.2128 -78.8678 105° East 198 228 7,100  Level Washington Center
10:50PM 39.2022 -78.7950 101° East 203 234 7,100  Level Washington Center
10:51PM 39.1917 -78.7194 100° East 203 234 7,100  Level Washington Center
10:52PM 39.1831 -78.6469 99° East 203 234 7,100  Level Washington Center
10:53PM 39.1767 -78.5744 96° East 203 234 7,100  Level Washington Center
10:54PM 39.1742 -78.4992 92° East 203 234 7,100  Level Washington Center
10:55PM 39.1697 -78.4242 94° East 203 234 7,100  Level Washington Center
10:56PM 39.1672 -78.3517 93° East 203 234 7,100 -600 Level Washington Center
10:58PM 39.1500 -78.1500 96° East 223 257 5,000 -600 Descending Potomac TRACON
10:59PM 39.1167 -78.0667 117° Southeast 210 242 5,000 -120 Level Potomac TRACON
11:00PM 39.1000 -78.0167 113° Southeast 209 241 4,800 -540 Descending Potomac TRACON
11:01PM 39.0667 -77.9667 131° Southeast 219 252 4,100 -720 Descending Potomac TRACON
11:02PM 39.0333 -77.9000 123° Southeast 215 247 3,500 -360 Descending Potomac TRACON
11:03PM 39.0000 -77.8500 131° Southeast 199 229 3,500 -60 Level Potomac TRACON
11:04PM 38.9500 -77.8000 142° Southeast 195 224 3,400 -480 Descending Potomac TRACON
11:05PM 38.9167 -77.7667 142° Southeast 209 241 2,700 -480 Descending Potomac TRACON
11:06PM 38.8833 -77.7167 131° Southeast 194 223 2,600 -180 Descending Potomac TRACON
11:07PM 38.8500 -77.6500 123° Southeast 169 194 2,400 -360 Descending Potomac TRACON
11:08PM 38.8167 -77.6167 142° Southeast 176 203 1,900 -480 Descending Potomac TRACON
11:09PM 38.7833 -77.5833 142° Southeast 135 155 1,600 -480 Descending Potomac TRACON
11:10PM 38.7667 -77.5500 123° Southeast 113 130 1,100 -300 Descending Potomac TRACON
11:11PM 38.7333 -77.5333 159° South 107 123 1,000 -120 Descending Potomac TRACON
11:13PM 38.7210 -77.5151 138° Southeast  Level Estimated
11:20PM 38.7210 -77.5151 138° Southeast  Level Estimated
11:21PM 38.7210 -77.5151 110° East  Level Estimated